Crane Gaia — 3FXX2 — position and weather

sailwx.info

Track history (hours):
 
Tides and Currents Weather Stations Pressure Air Temp Water Temp Dewpoint Dewpoint Depression Visibility Wind Speed Wind Dir Waves Ship Positions

Crane Gaia

Last reported at 2016-Jul-12 00:17 UTC. Time now 2016-Jul-28 16:30 UTC.
Position N 36°44' E 125°55'.
Warning: this ship's position is 16 days out of date.

Length 115 m; draft 7.3 m.

Type: Tanker. MMSI: 352461000.

Date/timePositionNaut miles runAvg speedWind from/ knotsBaromVisibWave heightAir tempDewpointWater temp
2016-Jul-12 00:17N 36°44' E 125°55'9 0.4
2016-Jul-10 22:30N 36°51' E 126°03'1415.1
2016-Jul-10 21:33N 36°38' E 125°56'1715.0
2016-Jul-10 20:24N 36°21' E 125°52'1314.9
2016-Jul-10 19:30N 36°08' E 125°48'  
2016-Jul-02 18:32N 36°15' E 124°03'1513.9
2016-Jul-02 17:28N 36°30' E 124°03'1313.6
2016-Jul-02 16:30N 36°43' E 124°01'1514.9
2016-Jul-02 15:28N 36°55' E 123°50'1415.2
2016-Jul-02 14:33N 37°07' E 123°40'1515.4
2016-Jul-02 13:33N 37°20' E 123°29'1515.2
2016-Jul-02 12:33N 37°32' E 123°18'1514.9
2016-Jul-02 11:33N 37°43' E 123°06'1613.9
2016-Jul-02 10:26N 37°53' E 122°50'1314.2
2016-Jul-02 09:33N 37°54' E 122°34'1414.3
2016-Jul-02 08:33N 37°54' E 122°16'1514.2
2016-Jul-02 07:31N 37°54' E 121°58'4214.0
2016-Jul-02 04:32N 37°57' E 121°05'1313.3
2016-Jul-02 03:33N 37°60' E 120°49'1312.9
2016-Jul-02 02:33N 38°02' E 120°33'1312.6
2016-Jul-02 01:33N 38°01' E 120°17'1211.8
2016-Jul-02 00:33N 37°52' E 120°06'  
Track history (hours):
 
Tides and Currents Weather Stations Pressure Air Temp Water Temp Dewpoint Dewpoint Depression Visibility Wind Speed Wind Dir Waves Ship Positions

Crane Gaia

Last reported at 2016-Jul-12 00:17 UTC. Time now 2016-Jul-28 16:30 UTC.
Position N 36°44' E 125°55'.
Warning: this ship's position is 16 days out of date.

Length 115 m; draft 7.3 m.

Type: Tanker. MMSI: 352461000.

Date/timePositionNaut miles runAvg speedWind from/ knotsBaromVisibWave heightAir tempDewpointWater temp
2016-Jul-12 00:17N 36°44' E 125°55'9 0.4
2016-Jul-10 22:30N 36°51' E 126°03'1415.1
2016-Jul-10 21:33N 36°38' E 125°56'1715.0
2016-Jul-10 20:24N 36°21' E 125°52'1314.9
2016-Jul-10 19:30N 36°08' E 125°48'  
2016-Jul-02 18:32N 36°15' E 124°03'1513.9
2016-Jul-02 17:28N 36°30' E 124°03'1313.6
2016-Jul-02 16:30N 36°43' E 124°01'1514.9
2016-Jul-02 15:28N 36°55' E 123°50'1415.2
2016-Jul-02 14:33N 37°07' E 123°40'1515.4
2016-Jul-02 13:33N 37°20' E 123°29'1515.2
2016-Jul-02 12:33N 37°32' E 123°18'1514.9
2016-Jul-02 11:33N 37°43' E 123°06'1613.9
2016-Jul-02 10:26N 37°53' E 122°50'1314.2
2016-Jul-02 09:33N 37°54' E 122°34'1414.3
2016-Jul-02 08:33N 37°54' E 122°16'1514.2
2016-Jul-02 07:31N 37°54' E 121°58'4214.0
2016-Jul-02 04:32N 37°57' E 121°05'1313.3
2016-Jul-02 03:33N 37°60' E 120°49'1312.9
2016-Jul-02 02:33N 38°02' E 120°33'1312.6
2016-Jul-02 01:33N 38°01' E 120°17'1211.8
2016-Jul-02 00:33N 37°52' E 120°06'  

Dump ship's entire track history